Time;durP1;ratioP1;P1;durP2;ratioP2;P2;SDS_P1;SDS_P2;PMS_P1;PMS_P2;Temp;Humidity;BMP_temperature;BMP_pressure;BME280_temperature;BME280_humidity;BME280_pressure;Samples;Min_cycle;Max_cycle;Signal;HPM_P1;HPM_P2
2022/01/05 06:12:57;;;;;;;0.30;0.30;;;;;;;16.52;50.49;98476.73;1945185;72;27885;-72
2022/01/05 06:15:46;;;;;;;0.37;0.35;;;;;;;16.99;49.71;98484.00;1916049;73;28091;-69
2022/01/05 06:18:35;;;;;;;0.30;0.30;;;;;;;17.82;48.33;98491.48;1910387;73;28026;-73
2022/01/05 06:21:25;;;;;;;0.30;0.30;;;;;;;18.54;47.13;98485.59;1921458;73;28063;-70
2022/01/05 06:24:14;;;;;;;2.10;0.40;;;;;;;19.10;45.97;98495.98;1922811;73;28018;-71
2022/01/05 06:27:03;;;;;;;0.20;0.20;;;;;;;19.55;45.05;98504.41;1906472;73;28122;-72
2022/01/05 06:29:53;;;;;;;0.30;0.30;;;;;;;19.93;44.19;98499.23;1905639;73;28057;-71
2022/01/05 06:32:46;;;;;;;0.50;0.30;;;;;;;20.21;43.56;98486.98;1935813;73;27982;-70
2022/01/05 06:35:35;;;;;;;0.25;0.25;;;;;;;20.46;43.03;98498.44;1902324;73;27986;-70
2022/01/05 06:38:25;;;;;;;0.25;0.25;;;;;;;20.59;42.49;98502.73;1904048;73;28067;-71
2022/01/05 06:41:14;;;;;;;0.27;0.27;;;;;;;20.75;42.07;98503.30;1911166;73;28060;-72
2022/01/05 06:44:03;;;;;;;0.28;0.28;;;;;;;20.82;41.66;98497.70;1925050;73;27981;-71
2022/01/05 06:46:51;;;;;;;0.33;0.33;;;;;;;20.95;41.31;98496.01;1902168;75;28240;-71
2022/01/05 06:49:39;;;;;;;0.23;0.23;;;;;;;21.08;41.07;98492.97;1902166;75;28014;-68
2022/01/05 06:52:29;;;;;;;0.30;0.30;;;;;;;21.18;40.79;98493.14;1902412;75;28189;-71
2022/01/05 06:55:18;;;;;;;0.20;0.20;;;;;;;21.25;40.55;98485.07;1934406;73;28038;-72
2022/01/05 06:58:08;;;;;;;0.28;0.28;;;;;;;21.35;40.40;98500.22;1914936;73;28154;-71
2022/01/05 07:00:58;;;;;;;0.23;0.23;;;;;;;21.43;40.21;98496.25;1905696;73;28096;-68
2022/01/05 07:03:47;;;;;;;0.20;0.20;;;;;;;21.48;40.15;98501.80;1914765;73;28036;-68
2022/01/05 07:06:35;;;;;;;0.25;0.25;;;;;;;21.49;40.09;98491.16;1902210;75;27991;-69
2022/01/05 07:09:25;;;;;;;0.30;0.30;;;;;;;21.53;40.08;98498.30;1902279;75;27979;-69
2022/01/05 07:12:34;;;;;;;0.30;0.30;;;;;;;21.56;40.12;98505.47;1906756;73;28096;-69
2022/01/05 07:15:23;;;;;;;1.00;0.30;;;;;;;21.59;40.05;98508.22;1902165;75;28127;-68
2022/01/05 07:18:12;;;;;;;0.20;0.20;;;;;;;21.58;40.03;98512.88;1923556;73;28094;-70
2022/01/05 07:21:01;;;;;;;0.40;0.30;;;;;;;21.53;40.16;98509.23;1902125;75;28059;-72
2022/01/05 07:23:49;;;;;;;0.20;0.20;;;;;;;21.58;40.01;98495.12;1895257;74;28080;-71
2022/01/05 07:26:37;;;;;;;0.25;0.25;;;;;;;21.58;40.08;98484.19;1912100;73;38446;-71
2022/01/05 07:29:27;;;;;;;0.70;0.20;;;;;;;21.65;40.03;98495.77;1920197;73;28037;-71
2022/01/05 07:32:15;;;;;;;0.20;0.20;;;;;;;21.70;39.99;98497.73;1902647;74;28055;-69
2022/01/05 07:35:05;;;;;;;0.20;0.20;;;;;;;21.74;39.90;98491.51;1904631;73;28146;-69
2022/01/05 07:37:55;;;;;;;0.35;0.20;;;;;;;21.76;39.82;98485.24;1891301;74;28609;-68
2022/01/05 07:40:45;;;;;;;0.40;0.40;;;;;;;21.76;39.73;98492.61;1922121;74;28021;-67
2022/01/05 07:43:34;;;;;;;0.20;0.20;;;;;;;21.78;39.79;98497.28;1901330;75;28152;-68
2022/01/05 07:46:23;;;;;;;0.20;0.20;;;;;;;21.78;39.74;98492.65;1901451;75;28203;-71
2022/01/05 07:49:12;;;;;;;0.80;0.20;;;;;;;21.84;39.73;98488.92;1897017;74;28037;-77
2022/01/05 07:52:01;;;;;;;0.20;0.20;;;;;;;21.83;39.74;98498.19;1916161;73;28025;-78
2022/01/05 07:54:52;;;;;;;0.20;0.20;;;;;;;21.84;39.71;98495.75;1889183;74;28166;-75
2022/01/05 07:57:39;;;;;;;0.30;0.20;;;;;;;21.87;39.63;98507.56;1874871;75;28197;-74
2022/01/05 08:00:28;;;;;;;0.30;0.30;;;;;;;21.84;39.67;98520.36;1859206;76;28065;-74
2022/01/05 08:03:17;;;;;;;0.30;0.30;;;;;;;21.89;39.62;98506.76;1854722;76;28131;-76
2022/01/05 08:06:06;;;;;;;0.50;0.20;;;;;;;21.90;39.54;98513.06;1841199;77;28240;-73
2022/01/05 08:08:54;;;;;;;0.50;0.25;;;;;;;21.90;39.52;98533.03;1846686;77;28205;-70
2022/01/05 08:11:44;;;;;;;0.40;0.15;;;;;;;21.93;39.49;98534.44;1838160;76;28673;-70
2022/01/05 08:14:34;;;;;;;0.15;0.15;;;;;;;21.93;39.46;98528.97;1862355;76;28176;-74
2022/01/05 08:17:22;;;;;;;0.40;0.20;;;;;;;21.88;39.46;98513.33;1864599;76;28217;-74
2022/01/05 08:20:11;;;;;;;0.30;0.30;;;;;;;21.90;39.37;98512.53;1901012;75;28034;-69
2022/01/05 08:23:00;;;;;;;0.20;0.20;;;;;;;21.87;39.42;98521.77;1918103;73;28069;-70
2022/01/05 08:25:51;;;;;;;0.50;0.30;;;;;;;21.87;39.50;98528.06;1901635;75;28157;-71
2022/01/05 08:28:39;;;;;;;0.20;0.20;;;;;;;21.89;39.47;98545.03;1920650;73;28699;-69
2022/01/05 08:31:29;;;;;;;0.20;0.20;;;;;;;21.89;39.41;98523.73;1909402;73;28310;-71
2022/01/05 08:34:18;;;;;;;0.30;0.30;;;;;;;21.82;39.51;98539.45;1912427;73;28236;-74
2022/01/05 08:37:07;;;;;;;0.30;0.30;;;;;;;21.81;39.31;98543.26;1919175;73;28046;-74
2022/01/05 08:39:55;;;;;;;0.23;0.23;;;;;;;21.84;39.13;98543.59;1924781;73;28010;-73
2022/01/05 08:42:45;;;;;;;1.60;0.30;;;;;;;21.73;39.08;98544.51;1911293;73;27975;-71
2022/01/05 08:45:35;;;;;;;0.40;0.40;;;;;;;21.72;39.08;98551.07;1901458;75;28035;-71
2022/01/05 08:48:23;;;;;;;0.30;0.30;;;;;;;21.73;39.09;98549.97;1901373;75;27991;-71
2022/01/05 08:51:13;;;;;;;0.50;0.40;;;;;;;21.69;38.95;98558.94;1907867;73;27999;-71
2022/01/05 08:54:02;;;;;;;0.40;0.40;;;;;;;21.69;39.03;98559.77;1914228;73;28071;-69
2022/01/05 08:56:50;;;;;;;0.40;0.40;;;;;;;21.72;38.91;98564.73;1901310;75;28083;-71
2022/01/05 08:59:56;;;;;;;0.50;0.50;;;;;;;21.72;38.93;98560.64;1901302;75;28036;-71
2022/01/05 09:02:45;;;;;;;0.90;0.50;;;;;;;21.75;38.93;98568.31;1910140;73;28048;-71
2022/01/05 09:05:34;;;;;;;0.80;0.60;;;;;;;21.71;38.94;98560.34;1907587;73;28035;-71
2022/01/05 09:08:22;;;;;;;0.53;0.53;;;;;;;21.76;38.90;98577.34;1901468;75;28107;-72
2022/01/05 09:11:11;;;;;;;0.60;0.60;;;;;;;21.77;38.95;98546.22;1901123;75;28033;-68
2022/01/05 09:13:59;;;;;;;0.85;0.75;;;;;;;21.75;38.93;98583.34;1901390;75;28220;-72
2022/01/05 09:16:48;;;;;;;0.82;0.82;;;;;;;21.76;38.96;98578.19;1911637;73;28141;-70
2022/01/05 09:19:37;;;;;;;1.50;1.00;;;;;;;21.75;38.98;98587.45;1929516;73;28011;-70
2022/01/05 09:22:26;;;;;;;0.90;0.90;;;;;;;21.75;38.94;98593.48;1901355;74;28098;-73
2022/01/05 09:25:18;;;;;;;1.32;1.20;;;;;;;21.75;39.02;98592.91;1916023;73;28090;-70
2022/01/05 09:28:05;;;;;;;2.80;1.22;;;;;;;21.79;38.95;98582.33;1919671;73;28094;-69
2022/01/05 09:30:53;;;;;;;1.37;1.27;;;;;;;21.81;38.85;98582.36;1901441;75;28055;-72
2022/01/05 09:33:42;;;;;;;1.40;1.30;;;;;;;21.80;38.78;98588.89;1901260;75;30379;-76
2022/01/05 09:36:35;;;;;;;1.50;1.40;;;;;;;21.77;38.85;98597.63;1901379;75;28135;-72
2022/01/05 09:42:27;;;;;;;1.92;1.75;;;;;;;21.82;38.82;98602.33;1921580;73;28045;-69
2022/01/05 09:45:19;;;;;;;2.40;1.70;;;;;;;21.80;38.77;98622.23;1901287;75;28179;-70
2022/01/05 09:48:17;;;;;;;1.90;1.80;;;;;;;21.78;38.83;98623.86;1901136;75;28239;-70
2022/01/05 09:51:13;;;;;;;2.20;2.00;;;;;;;21.78;38.80;98639.42;1901373;75;28101;-70
2022/01/05 09:54:03;;;;;;;2.05;1.85;;;;;;;21.79;38.83;98633.73;1901149;75;28117;-75
2022/01/05 09:56:52;;;;;;;2.33;2.13;;;;;;;21.79;38.81;98643.83;1928653;73;28081;-70
2022/01/05 09:59:42;;;;;;;2.17;2.00;;;;;;;21.78;38.80;98643.00;1922426;73;32970;-71
2022/01/05 10:02:31;;;;;;;2.40;2.00;;;;;;;21.79;38.74;98631.00;1923985;73;28211;-70
2022/01/05 10:05:19;;;;;;;2.45;2.25;;;;;;;21.80;38.72;98636.73;1920240;73;28050;-74
2022/01/05 10:08:11;;;;;;;2.47;2.27;;;;;;;21.78;38.71;98637.53;1918305;73;28092;-75
2022/01/05 10:11:01;;;;;;;2.20;2.10;;;;;;;21.82;38.79;98643.34;1917037;73;28124;-75
2022/01/05 10:13:51;;;;;;;3.12;2.33;;;;;;;21.82;38.71;98626.94;1901140;75;28111;-69
2022/01/05 10:16:43;;;;;;;2.50;2.30;;;;;;;21.80;38.71;98646.30;1892038;75;28072;-72
2022/01/05 10:19:32;;;;;;;2.50;2.30;;;;;;;21.73;38.74;98636.61;1889181;75;28048;-73
2022/01/05 10:22:39;;;;;;;2.50;2.30;;;;;;;21.70;38.79;98633.03;1889242;75;28137;-72
2022/01/05 10:25:29;;;;;;;3.25;2.15;;;;;;;21.71;38.74;98630.57;1907215;74;28259;-75
2022/01/05 10:28:22;;;;;;;2.40;2.20;;;;;;;21.75;38.67;98651.69;1893195;74;28059;-74
2022/01/05 10:31:17;;;;;;;2.53;2.33;;;;;;;21.77;38.56;98638.63;1889129;75;28639;-74
2022/01/05 10:34:21;;;;;;;2.50;2.30;;;;;;;21.75;38.61;98644.86;1888880;75;28228;-73
2022/01/05 10:37:11;;;;;;;2.40;2.20;;;;;;;21.77;38.53;98649.56;1910128;73;28108;-76
2022/01/05 10:40:07;;;;;;;2.45;2.15;;;;;;;21.77;38.52;98650.09;1888919;75;28299;-74
2022/01/05 10:42:58;;;;;;;2.52;2.20;;;;;;;21.76;38.51;98660.72;1892647;74;28308;-73
2022/01/05 10:45:51;;;;;;;2.47;2.12;;;;;;;21.75;38.54;98642.69;1901153;75;28271;-74
2022/01/05 10:48:40;;;;;;;2.30;2.10;;;;;;;21.74;38.50;98668.34;1901102;75;28285;-73
2022/01/05 10:51:33;;;;;;;2.55;2.20;;;;;;;21.72;38.44;98657.67;1911335;74;28176;-71
2022/01/05 10:54:25;;;;;;;2.20;2.00;;;;;;;21.70;38.47;98645.33;1901122;75;28188;-72
2022/01/05 10:57:31;;;;;;;2.90;2.10;;;;;;;21.66;38.50;98651.81;1909055;74;28091;-71
2022/01/05 11:00:39;;;;;;;2.27;2.08;;;;;;;21.64;38.46;98647.14;1901398;73;28023;-72
2022/01/05 11:03:42;;;;;;;2.05;1.90;;;;;;;21.64;38.50;98647.14;1907046;74;28162;-71
2022/01/05 11:06:31;;;;;;;1.90;1.80;;;;;;;21.64;38.41;98676.37;1919326;73;28109;-71
2022/01/05 11:09:21;;;;;;;2.77;2.10;;;;;;;21.62;38.41;98643.83;1898506;74;28064;-76
2022/01/05 11:12:12;;;;;;;2.00;1.90;;;;;;;21.59;38.54;98673.55;1908442;73;28175;-76
2022/01/05 11:15:25;;;;;;;2.42;1.92;;;;;;;21.65;38.63;98646.08;1909151;74;28180;-76
2022/01/05 11:18:17;;;;;;;2.22;1.95;;;;;;;21.67;38.51;98675.35;1909111;74;28138;-75
2022/01/05 11:21:06;;;;;;;2.10;1.80;;;;;;;21.62;38.65;98671.16;1889426;75;28257;-69
2022/01/05 11:23:55;;;;;;;1.98;1.87;;;;;;;21.61;38.54;98670.05;1909160;73;28134;-69
2022/01/05 11:26:43;;;;;;;2.00;1.80;;;;;;;21.62;38.55;98670.33;1909576;73;28138;-69
2022/01/05 11:29:33;;;;;;;1.85;1.70;;;;;;;21.58;38.53;98682.31;1915471;73;28024;-72
2022/01/05 11:32:27;;;;;;;2.67;1.80;;;;;;;21.53;38.55;98672.66;1889277;75;28133;-74
2022/01/05 11:35:15;;;;;;;1.65;1.55;;;;;;;21.55;38.58;98683.33;1921001;74;28102;-72
2022/01/05 11:38:06;;;;;;;1.70;1.60;;;;;;;21.54;38.61;98673.48;1918186;73;28114;-71
2022/01/05 11:40:56;;;;;;;1.80;1.50;;;;;;;21.54;38.61;98652.99;1918582;74;28134;-71
2022/01/05 11:43:46;;;;;;;2.08;1.60;;;;;;;21.52;38.67;98667.45;1901959;73;28097;-71
2022/01/05 11:46:43;;;;;;;1.73;1.60;;;;;;;21.57;38.59;98670.23;1891554;74;28136;-73
2022/01/05 11:49:29;;;;;;;1.77;1.67;;;;;;;21.59;38.59;98658.52;1905973;73;28126;-71
2022/01/05 11:52:18;;;;;;;1.62;1.52;;;;;;;21.56;38.62;98657.67;1935169;73;28160;-72
2022/01/05 11:55:07;;;;;;;1.50;1.40;;;;;;;21.56;38.64;98672.70;1917742;73;32026;-73
2022/01/05 11:58:19;;;;;;;1.77;1.67;;;;;;;21.58;38.65;98671.38;1888248;74;28110;-70
2022/01/05 12:01:23;;;;;;;1.65;1.55;;;;;;;21.57;38.59;98658.77;1904252;74;28152;-73
2022/01/05 12:04:15;;;;;;;2.40;1.40;;;;;;;21.55;38.67;98651.90;1924825;74;28145;-70
2022/01/05 12:07:07;;;;;;;1.60;1.50;;;;;;;21.55;38.59;98644.53;1901370;75;28198;-71
2022/01/05 12:09:57;;;;;;;1.67;1.57;;;;;;;21.55;38.57;98654.10;1901049;75;28216;-71
2022/01/05 12:12:56;;;;;;;1.70;1.40;;;;;;;21.51;38.61;98652.95;1889388;75;28037;-73
2022/01/05 12:15:52;;;;;;;1.40;1.30;;;;;;;21.54;38.51;98653.80;1917440;73;28015;-72
2022/01/05 12:18:41;;;;;;;1.57;1.47;;;;;;;21.49;38.54;98662.47;1894272;74;28048;-71
2022/01/05 12:21:45;;;;;;;1.57;1.47;;;;;;;21.48;38.57;98648.50;1900067;74;28126;-70
2022/01/05 12:25:04;;;;;;;1.20;1.20;;;;;;;21.53;38.51;98652.69;1870217;75;28073;-71
2022/01/05 12:28:02;;;;;;;1.30;1.20;;;;;;;21.53;38.42;98664.45;1857258;75;28189;-72
2022/01/05 12:30:51;;;;;;;1.30;1.20;;;;;;;21.44;38.51;98646.81;1895148;75;28200;-72
2022/01/05 12:33:49;;;;;;;1.12;1.07;;;;;;;21.43;38.61;98657.97;1895190;75;28216;-72
2022/01/05 12:36:39;;;;;;;1.60;1.42;;;;;;;21.46;38.63;98658.33;1889101;75;28245;-75
2022/01/05 12:39:47;;;;;;;1.20;1.20;;;;;;;21.45;38.72;98650.39;1869037;75;28231;-73
2022/01/05 12:42:35;;;;;;;1.10;1.10;;;;;;;21.43;38.67;98646.52;1889587;75;28613;-75
2022/01/05 12:45:56;;;;;;;1.67;1.10;;;;;;;21.45;38.64;98670.31;1883845;75;30206;-74
2022/01/05 12:48:48;;;;;;;1.12;1.10;;;;;;;21.48;38.53;98657.53;1868432;76;28139;-74
2022/01/05 12:51:41;;;;;;;1.20;1.10;;;;;;;21.49;38.50;98651.54;1856711;77;28233;-73
2022/01/05 12:54:39;;;;;;;1.90;1.20;;;;;;;21.49;38.42;98657.84;1878333;75;28263;-74
2022/01/05 12:57:25;;;;;;;1.30;1.20;;;;;;;21.50;38.40;98651.81;1892142;75;28210;-75
2022/01/05 13:00:14;;;;;;;1.22;1.22;;;;;;;21.52;38.29;98655.16;1900873;75;28504;-74
2022/01/05 13:03:03;;;;;;;1.30;1.20;;;;;;;21.46;38.30;98655.59;1868820;76;28227;-75
2022/01/05 13:05:52;;;;;;;1.30;1.20;;;;;;;21.48;38.24;98663.53;1875289;75;28656;-75
2022/01/05 13:08:52;;;;;;;1.10;1.10;;;;;;;21.47;38.26;98665.98;1865371;75;28263;-75
2022/01/05 13:11:47;;;;;;;1.20;1.10;;;;;;;21.48;38.19;98676.66;1857075;77;32152;-75
2022/01/05 13:14:36;;;;;;;1.30;1.20;;;;;;;21.45;38.23;98670.31;1875255;75;28184;-75
2022/01/05 13:17:31;;;;;;;1.10;1.10;;;;;;;21.46;38.18;98667.89;1866787;75;32532;-74
2022/01/05 13:20:20;;;;;;;1.30;1.20;;;;;;;21.47;38.16;98674.98;1874319;75;28268;-75
2022/01/05 13:23:09;;;;;;;1.10;1.00;;;;;;;21.47;38.12;98670.09;1888977;75;28154;-75
2022/01/05 13:26:01;;;;;;;1.12;1.02;;;;;;;21.42;38.16;98670.83;1886593;75;28133;-75
2022/01/05 13:28:57;;;;;;;1.10;1.10;;;;;;;21.44;38.10;98665.94;1875105;75;28258;-74
2022/01/05 13:32:02;;;;;;;1.50;1.00;;;;;;;21.42;38.11;98669.46;1857679;75;28187;-75
2022/01/05 13:35:00;;;;;;;1.00;1.00;;;;;;;21.42;38.05;98656.33;1867726;75;28126;-76
2022/01/05 13:37:53;;;;;;;1.10;1.00;;;;;;;21.44;38.07;98669.20;1879840;75;28237;-75
2022/01/05 13:40:46;;;;;;;1.02;0.95;;;;;;;21.42;38.07;98673.56;1856989;77;28187;-75
2022/01/05 13:43:35;;;;;;;2.65;1.10;;;;;;;21.45;38.00;98682.61;1853006;75;28288;-75
2022/01/05 13:46:24;;;;;;;1.05;1.05;;;;;;;21.44;37.97;98685.59;1878958;75;28569;-74
2022/01/05 13:49:16;;;;;;;0.80;0.75;;;;;;;21.48;37.92;98691.69;1888587;75;28098;-76
2022/01/05 13:52:14;;;;;;;1.10;1.10;;;;;;;21.45;37.86;98687.27;1901622;75;28099;-75
2022/01/05 13:55:04;;;;;;;1.40;1.00;;;;;;;21.46;37.92;98689.74;1894233;75;28337;-75
2022/01/05 13:58:06;;;;;;;1.00;1.00;;;;;;;21.42;37.86;98687.22;1850207;75;28220;-75
2022/01/05 14:01:03;;;;;;;1.15;0.90;;;;;;;21.41;37.90;98688.28;1896561;75;28070;-75
2022/01/05 14:04:00;;;;;;;0.98;0.82;;;;;;;21.42;37.85;98694.05;1887417;75;28138;-74
2022/01/05 14:07:00;;;;;;;0.95;0.90;;;;;;;21.40;37.93;98696.17;1889321;75;31992;-75
2022/01/05 14:10:10;;;;;;;0.80;0.80;;;;;;;21.35;37.97;98694.18;1856822;77;28140;-74
2022/01/05 14:13:02;;;;;;;0.95;0.90;;;;;;;21.38;37.91;98690.69;1889027;75;28179;-76
2022/01/05 14:15:53;;;;;;;1.98;1.07;;;;;;;21.35;37.93;98707.84;1888953;75;28119;-76
2022/01/05 14:18:46;;;;;;;0.65;0.65;;;;;;;21.38;37.95;98694.23;1867219;75;28106;-76
2022/01/05 14:21:39;;;;;;;0.90;0.90;;;;;;;21.39;37.88;98689.60;1889054;75;28213;-76
2022/01/05 14:24:37;;;;;;;0.70;0.70;;;;;;;21.39;37.89;98706.83;1882250;75;28319;-73
2022/01/05 14:27:25;;;;;;;0.80;0.80;;;;;;;21.42;37.86;98708.24;1868886;76;28140;-73
2022/01/05 14:30:14;;;;;;;1.00;0.90;;;;;;;21.40;37.79;98697.54;1881466;75;28154;-76
2022/01/05 14:33:09;;;;;;;1.20;0.95;;;;;;;21.41;37.85;98699.73;1899253;75;28151;-75
2022/01/05 14:35:53;;;;;;;0.80;0.80;;;;;;;21.40;37.79;98702.20;1883043;75;28181;-75
2022/01/05 14:39:02;;;;;;;1.47;0.90;;;;;;;21.44;37.75;98700.63;1879807;75;28174;-76
2022/01/05 14:42:00;;;;;;;0.80;0.80;;;;;;;21.44;37.68;98703.36;1880249;75;28111;-76
2022/01/05 14:44:53;;;;;;;0.80;0.80;;;;;;;21.37;37.72;98704.88;1896990;75;28167;-76
2022/01/05 14:47:43;;;;;;;0.70;0.70;;;;;;;21.35;37.80;98708.40;1906423;74;28155;-76
2022/01/05 14:50:32;;;;;;;0.80;0.80;;;;;;;21.37;37.71;98708.98;1869005;76;28159;-76
2022/01/05 14:53:31;;;;;;;0.50;0.50;;;;;;;21.41;37.68;98717.50;1882908;75;28167;-76
2022/01/05 14:56:12;;;;;;;0.80;0.80;;;;;;;21.38;37.70;98713.35;1877540;75;28068;-75
2022/01/05 14:59:02;;;;;;;0.78;0.78;;;;;;;21.37;37.72;98715.81;1867205;75;28240;-76
2022/01/05 15:01:50;;;;;;;0.70;0.70;;;;;;;21.42;37.62;98720.53;1901340;75;28176;-75
2022/01/05 15:04:39;;;;;;;0.90;0.90;;;;;;;21.40;37.62;98715.30;1887482;75;28228;-74
2022/01/05 15:07:28;;;;;;;0.50;0.50;;;;;;;21.43;37.59;98718.08;1901534;75;28112;-76
2022/01/05 15:10:18;;;;;;;0.80;0.80;;;;;;;21.39;37.60;98712.29;1901225;75;28212;-75
2022/01/05 15:13:07;;;;;;;0.65;0.65;;;;;;;21.38;37.60;98706.52;1874967;75;28157;-77
2022/01/05 15:15:55;;;;;;;0.60;0.60;;;;;;;21.34;37.59;98710.83;1880110;75;28200;-76
2022/01/05 15:18:44;;;;;;;0.70;0.70;;;;;;;21.38;37.60;98718.02;1895879;75;28205;-76
2022/01/05 15:21:34;;;;;;;0.72;0.72;;;;;;;21.37;37.60;98728.63;1890882;75;28076;-75
2022/01/05 15:24:23;;;;;;;0.60;0.60;;;;;;;21.35;37.56;98716.59;1857033;77;28510;-75
2022/01/05 15:27:12;;;;;;;0.60;0.60;;;;;;;21.34;37.64;98721.22;1878341;75;28161;-74
2022/01/05 15:30:00;;;;;;;0.80;0.80;;;;;;;21.35;37.58;98716.59;1871566;75;28453;-75
2022/01/05 15:32:48;;;;;;;0.57;0.50;;;;;;;21.37;37.57;98714.98;1889463;75;28142;-75
2022/01/05 15:35:38;;;;;;;0.53;0.53;;;;;;;21.34;37.56;98711.66;1870993;75;28100;-74
2022/01/05 15:38:29;;;;;;;0.50;0.50;;;;;;;21.33;37.58;98714.09;1901264;75;28099;-75
2022/01/05 15:41:17;;;;;;;0.70;0.70;;;;;;;21.31;37.53;98712.14;1886288;75;28041;-75
2022/01/05 15:44:06;;;;;;;0.60;0.60;;;;;;;21.29;37.54;98717.55;1872744;75;28097;-76
2022/01/05 15:46:55;;;;;;;0.70;0.70;;;;;;;21.31;37.60;98714.88;1887871;75;28116;-75
2022/01/05 15:49:45;;;;;;;0.88;0.60;;;;;;;21.34;37.50;98714.92;1890798;75;28201;-75
2022/01/05 15:52:34;;;;;;;1.00;0.70;;;;;;;21.33;37.48;98716.82;1891037;75;28133;-74
2022/01/05 15:55:25;;;;;;;0.60;0.60;;;;;;;21.28;37.50;98707.72;1868746;76;28193;-75
2022/01/05 16:01:21;;;;;;;0.50;0.50;;;;;;;21.27;37.50;98717.81;1867352;75;28138;-76
2022/01/05 16:04:08;;;;;;;0.60;0.60;;;;;;;21.24;37.59;98721.02;1891689;75;28110;-77
2022/01/05 16:06:56;;;;;;;0.60;0.60;;;;;;;21.26;37.58;98724.34;1876762;75;28217;-75
2022/01/05 16:09:44;;;;;;;0.60;0.60;;;;;;;21.27;37.52;98722.44;1868536;76;28161;-76
2022/01/05 16:12:34;;;;;;;0.70;0.70;;;;;;;21.28;37.49;98716.72;1875218;75;28119;-77
2022/01/05 16:15:24;;;;;;;0.60;0.60;;;;;;;21.25;37.45;98719.97;1867657;75;28135;-76
2022/01/05 16:18:12;;;;;;;0.70;0.70;;;;;;;21.22;37.53;98720.44;1889182;75;28193;-76
2022/01/05 16:21:01;;;;;;;0.60;0.60;;;;;;;21.26;37.45;98724.34;1889131;74;28175;-76
2022/01/05 16:23:50;;;;;;;0.75;0.75;;;;;;;21.24;37.46;98722.39;1881417;75;38907;-76
2022/01/05 16:26:38;;;;;;;0.50;0.50;;;;;;;21.22;37.46;98729.17;1869033;76;28455;-75
2022/01/05 16:29:27;;;;;;;0.55;0.55;;;;;;;21.27;37.46;98729.27;1877490;75;28107;-74
2022/01/05 16:32:15;;;;;;;0.70;0.70;;;;;;;21.28;37.44;98725.48;1888940;75;28183;-76
2022/01/05 16:35:07;;;;;;;0.68;0.60;;;;;;;21.28;37.39;98715.92;1897973;75;28073;-76
2022/01/05 16:37:56;;;;;;;0.60;0.50;;;;;;;21.24;37.37;98734.69;1889128;75;28134;-73
2022/01/05 16:40:44;;;;;;;0.60;0.60;;;;;;;21.23;37.47;98724.84;1887141;75;28234;-77
2022/01/05 16:43:33;;;;;;;0.68;0.60;;;;;;;21.21;37.41;98737.09;1890790;75;28079;-74
2022/01/05 16:46:21;;;;;;;0.57;0.57;;;;;;;21.24;37.41;98733.84;1895444;75;28137;-74
2022/01/05 16:49:13;;;;;;;0.55;0.55;;;;;;;21.22;37.41;98735.47;1879169;75;28096;-76
2022/01/05 16:52:01;;;;;;;0.60;0.60;;;;;;;21.24;37.42;98725.66;1872352;75;28129;-76
2022/01/05 16:54:58;;;;;;;0.50;0.50;;;;;;;21.25;37.29;98727.33;1880221;75;28166;-74
2022/01/05 17:00:39;;;;;;;0.77;0.77;;;;;;;21.19;37.33;98746.06;1822331;75;28287;-74
2022/01/05 17:03:22;;;;;;;0.80;0.50;;;;;;;21.23;37.31;98744.50;1879185;75;28132;-75
2022/01/05 17:06:11;;;;;;;0.40;0.40;;;;;;;21.21;37.29;98752.91;1890625;75;28209;-76
2022/01/05 17:08:59;;;;;;;0.57;0.57;;;;;;;21.20;37.27;98747.17;1886300;75;28096;-77
2022/01/05 17:11:48;;;;;;;0.90;0.50;;;;;;;21.18;37.24;98752.59;1876109;75;28169;-76
2022/01/05 17:14:38;;;;;;;0.60;0.60;;;;;;;21.19;37.27;98759.72;1876574;75;28200;-76
2022/01/05 17:17:27;;;;;;;0.68;0.68;;;;;;;21.19;37.29;98756.98;1888111;75;28059;-77
2022/01/05 17:20:15;;;;;;;0.70;0.70;;;;;;;21.19;37.22;98754.25;1867041;75;28178;-75
2022/01/05 17:23:05;;;;;;;0.60;0.60;;;;;;;21.20;37.22;98758.09;1886967;75;29145;-75
2022/01/05 17:25:53;;;;;;;0.40;0.40;;;;;;;21.21;37.24;98761.66;1876552;76;28170;-75
2022/01/05 17:28:41;;;;;;;0.65;0.60;;;;;;;21.18;37.25;98752.05;1897606;74;28123;-73
2022/01/05 17:31:31;;;;;;;0.40;0.40;;;;;;;21.14;37.29;98766.44;1877923;76;28198;-75
2022/01/05 17:34:20;;;;;;;0.40;0.40;;;;;;;21.14;37.30;98758.25;1895545;74;28115;-75
2022/01/05 17:37:09;;;;;;;0.65;0.65;;;;;;;21.15;37.30;98772.17;1891587;74;28153;-75
2022/01/05 17:39:58;;;;;;;1.20;0.50;;;;;;;21.15;37.28;98771.65;1904675;74;28141;-74
2022/01/05 17:42:53;;;;;;;0.50;0.50;;;;;;;21.16;37.22;98771.12;1888006;74;28184;-75
2022/01/05 17:45:38;;;;;;;0.45;0.45;;;;;;;21.12;37.27;98774.86;1876861;76;28095;-76
2022/01/05 17:48:27;;;;;;;0.40;0.40;;;;;;;21.13;37.29;98784.72;1889432;74;28184;-74
2022/01/05 17:51:19;;;;;;;0.60;0.60;;;;;;;21.18;37.25;98793.02;1889677;74;28138;-74
2022/01/05 17:54:06;;;;;;;0.60;0.60;;;;;;;21.20;37.20;98785.41;1879210;74;28276;-75
2022/01/05 17:56:54;;;;;;;0.60;0.60;;;;;;;21.18;37.13;98798.48;1904391;74;28064;-75
2022/01/05 17:59:42;;;;;;;0.50;0.50;;;;;;;21.16;37.15;98800.62;1882003;74;28275;-74
2022/01/05 18:02:31;;;;;;;0.60;0.60;;;;;;;21.12;37.15;98796.70;1883055;74;28076;-76
2022/01/05 18:05:20;;;;;;;0.50;0.50;;;;;;;21.13;37.19;98805.73;1907849;74;28063;-77
2022/01/05 18:08:11;;;;;;;0.50;0.50;;;;;;;21.13;37.25;98805.73;1877789;74;28087;-75
2022/01/05 18:11:00;;;;;;;0.50;0.50;;;;;;;21.12;37.24;98815.02;1885913;74;28164;-76
2022/01/05 18:13:49;;;;;;;0.90;0.67;;;;;;;21.15;37.17;98815.88;1907799;74;28063;-76
2022/01/05 18:16:47;;;;;;;0.50;0.50;;;;;;;21.13;37.17;98817.49;1896145;74;28208;-75
2022/01/05 18:19:37;;;;;;;0.80;0.50;;;;;;;21.11;37.25;98813.34;1881723;74;28068;-76
2022/01/05 18:22:26;;;;;;;0.40;0.40;;;;;;;21.08;37.32;98835.66;1875004;76;28651;-74
2022/01/05 18:25:14;;;;;;;0.33;0.33;;;;;;;21.10;37.21;98825.32;1880597;74;28162;-75
2022/01/05 18:28:03;;;;;;;0.60;0.60;;;;;;;21.13;37.20;98822.95;1898024;74;28099;-74
2022/01/05 18:30:52;;;;;;;0.55;0.55;;;;;;;21.12;37.24;98834.94;1895844;74;28098;-75
2022/01/05 18:33:41;;;;;;;0.70;0.70;;;;;;;21.13;37.21;98827.58;1882106;74;28055;-74
2022/01/05 18:36:30;;;;;;;0.40;0.40;;;;;;;21.08;37.29;98817.38;1888272;74;28055;-74
2022/01/05 18:39:20;;;;;;;0.60;0.53;;;;;;;21.10;37.21;98830.25;1905700;74;28121;-76
2022/01/05 18:42:09;;;;;;;0.50;0.50;;;;;;;21.10;37.29;98837.61;1894193;74;28124;-75
2022/01/05 18:44:59;;;;;;;0.67;0.63;;;;;;;21.06;37.36;98837.27;1901750;74;28224;-74
2022/01/05 18:47:47;;;;;;;0.50;0.50;;;;;;;21.07;37.30;98833.48;1880694;74;28091;-76
2022/01/05 18:50:35;;;;;;;0.70;0.50;;;;;;;21.08;37.37;98841.13;1876751;76;28239;-76
2022/01/05 18:53:24;;;;;;;0.53;0.43;;;;;;;21.08;37.32;98836.50;1876389;76;28272;-73
2022/01/05 18:56:12;;;;;;;1.20;0.50;;;;;;;21.06;37.30;98845.47;1897864;74;28091;-74
2022/01/05 18:59:01;;;;;;;0.50;0.50;;;;;;;21.07;37.33;98856.70;1899428;74;30030;-75
2022/01/05 19:01:49;;;;;;;0.50;0.50;;;;;;;21.09;37.26;98845.52;1904061;74;30980;-76
2022/01/05 19:04:44;;;;;;;0.90;0.42;;;;;;;21.12;37.21;98849.16;1907810;74;28060;-75
2022/01/05 19:07:28;;;;;;;0.40;0.40;;;;;;;21.10;37.23;98852.09;1882804;74;28110;-76
2022/01/05 19:10:16;;;;;;;0.50;0.50;;;;;;;21.07;37.27;98850.41;1897504;74;28110;-75
2022/01/05 19:13:05;;;;;;;0.47;0.47;;;;;;;21.09;37.26;98843.63;1907620;74;28098;-75
2022/01/05 19:15:53;;;;;;;0.40;0.40;;;;;;;21.11;37.20;98849.68;1907668;74;28055;-75
2022/01/05 19:18:41;;;;;;;0.47;0.47;;;;;;;21.12;37.15;98842.32;1891257;74;28194;-75
2022/01/05 19:21:30;;;;;;;0.37;0.37;;;;;;;21.11;37.16;98844.75;1907998;74;28189;-75
2022/01/05 19:24:20;;;;;;;0.30;0.30;;;;;;;21.09;37.19;98835.44;1891460;74;28075;-74
2022/01/05 19:27:08;;;;;;;0.70;0.50;;;;;;;21.09;37.18;98845.52;1879472;75;28146;-74
2022/01/05 19:29:57;;;;;;;0.40;0.40;;;;;;;21.07;37.14;98847.67;1903003;74;28136;-74
2022/01/05 19:32:46;;;;;;;1.05;0.55;;;;;;;21.06;37.15;98845.99;1902106;74;28148;-75
2022/01/05 19:35:34;;;;;;;0.60;0.60;;;;;;;21.06;37.13;98844.63;1897086;75;28188;-75
2022/01/05 19:38:22;;;;;;;0.50;0.50;;;;;;;21.05;37.11;98848.45;1893596;75;28158;-75
2022/01/05 19:41:11;;;;;;;0.40;0.40;;;;;;;21.06;37.08;98837.80;1894986;74;28070;-75
2022/01/05 19:44:03;;;;;;;0.40;0.40;;;;;;;21.04;37.15;98837.19;1908026;74;28160;-75
2022/01/05 19:46:51;;;;;;;0.60;0.50;;;;;;;21.06;37.10;98843.27;1882404;75;28138;-74